Time;durP1;ratioP1;P1;durP2;ratioP2;P2;SDS_P1;SDS_P2;PMS_P1;PMS_P2;Temp;Humidity;BMP_temperature;BMP_pressure;BME280_temperature;BME280_humidity;BME280_pressure;Samples;Min_cycle;Max_cycle;Signal;HPM_P1;HPM_P2
2022/08/23 00:01:55;;;;;;;19.25;3.72;;;;;;;23.26;66.66;99444.80;1666356;85;21946;-59
2022/08/23 00:04:27;;;;;;;16.23;4.25;;;;;;;23.26;66.66;99444.80;1659380;85;21621;-59
2022/08/23 00:06:54;;;;;;;21.02;4.03;;;;;;;23.23;67.12;99447.78;1669225;85;21633;-59
2022/08/23 00:09:22;;;;;;;18.30;4.55;;;;;;;23.14;67.34;99448.68;1668157;85;21526;-59
2022/08/23 00:11:52;;;;;;;21.40;4.85;;;;;;;23.11;66.53;99452.52;1667892;85;21546;-60
2022/08/23 00:14:27;;;;;;;18.62;5.22;;;;;;;23.11;66.53;99452.52;1668105;85;21743;-60
2022/08/23 00:16:55;;;;;;;20.02;4.47;;;;;;;23.21;66.02;99456.47;1666564;85;20985;-60
2022/08/23 00:19:22;;;;;;;19.48;3.62;;;;;;;23.21;66.02;99456.47;1670010;83;21530;-61
2022/08/23 00:21:50;;;;;;;26.50;4.33;;;;;;;23.18;66.17;99455.93;1672705;83;21558;-60
2022/08/23 00:24:17;;;;;;;27.02;4.33;;;;;;;23.16;66.45;99456.08;1667589;85;21067;-60
2022/08/23 00:27:06;;;;;;;14.63;4.20;;;;;;;23.22;66.15;99460.83;1672630;84;22099;-60
2022/08/23 00:29:50;;;;;;;17.73;4.05;;;;;;;23.22;65.77;99454.63;1666721;85;21511;-59
2022/08/23 00:32:23;;;;;;;20.60;4.78;;;;;;;23.20;65.73;99445.39;1674627;84;21440;-59
2022/08/23 00:34:50;;;;;;;23.32;4.05;;;;;;;23.20;65.73;99445.39;1659463;85;21024;-59
2022/08/23 00:37:17;;;;;;;21.45;4.10;;;;;;;23.18;65.92;99454.08;1664691;85;21593;-59
2022/08/23 00:39:44;;;;;;;21.07;5.08;;;;;;;23.11;66.65;99453.86;1663167;84;21854;-60
2022/08/23 00:49:08;;;;;;;17.85;4.55;;;;;;;23.13;66.13;99463.06;1659085;85;21716;-60
2022/08/23 00:51:52;;;;;;;16.27;3.80;;;;;;;23.05;66.28;99469.69;1664594;84;20976;-59
2022/08/23 00:54:21;;;;;;;16.73;4.72;;;;;;;23.04;66.55;99472.05;1660603;84;21748;-59
2022/08/23 00:56:48;;;;;;;21.00;4.37;;;;;;;23.04;66.71;99459.98;1654445;85;21453;-59
2022/08/23 00:59:14;;;;;;;15.93;4.43;;;;;;;23.11;66.02;99467.74;1684745;83;21019;-60
2022/08/23 01:01:42;;;;;;;11.80;3.60;;;;;;;23.05;66.03;99469.69;1686087;83;21506;-60
2022/08/23 01:04:10;;;;;;;15.28;3.98;;;;;;;23.05;66.03;99469.69;1660815;85;21609;-59
2022/08/23 01:07:00;;;;;;;18.35;4.28;;;;;;;23.06;65.95;99466.03;1681672;84;21770;-59
2022/08/23 01:09:27;;;;;;;22.40;4.03;;;;;;;23.01;66.15;99466.94;1662444;85;20968;-59
2022/08/23 01:12:05;;;;;;;18.37;4.10;;;;;;;23.02;66.27;99466.80;1684709;84;21463;-59
2022/08/23 01:14:39;;;;;;;19.10;3.58;;;;;;;23.03;65.84;99471.17;1660527;85;21516;-59
2022/08/23 01:17:14;;;;;;;20.80;3.80;;;;;;;22.94;66.02;99466.20;1658344;85;21594;-59
2022/08/23 01:19:59;;;;;;;23.35;3.70;;;;;;;22.90;66.28;99461.27;1663559;84;21905;-60
2022/08/23 01:22:49;;;;;;;14.80;3.77;;;;;;;22.90;66.28;99461.27;1646535;85;21486;-59
2022/08/23 01:25:20;;;;;;;16.60;3.58;;;;;;;22.87;66.11;99470.97;1680057;83;21519;-59
2022/08/23 01:27:47;;;;;;;20.37;3.77;;;;;;;22.87;66.11;99470.97;1684129;84;21443;-59
2022/08/23 01:30:21;;;;;;;17.00;4.33;;;;;;;22.89;66.00;99473.84;1684713;83;21522;-59
2022/08/23 01:32:55;;;;;;;19.48;4.12;;;;;;;22.86;66.54;99471.95;1675751;83;21461;-59
2022/08/23 01:35:41;;;;;;;13.60;3.85;;;;;;;22.77;66.32;99474.18;1683837;83;21478;-59
2022/08/23 01:38:08;;;;;;;18.52;3.72;;;;;;;22.76;65.89;99483.23;1678135;84;21624;-59
2022/08/23 01:40:35;;;;;;;19.62;3.10;;;;;;;22.76;66.10;99481.38;1681243;83;21452;-59
2022/08/23 01:43:02;;;;;;;18.57;3.60;;;;;;;22.76;65.98;99488.08;1628596;86;21742;-59
2022/08/23 01:45:30;;;;;;;22.93;3.98;;;;;;;22.74;65.72;99484.71;1621384;87;21959;-59
2022/08/23 01:47:57;;;;;;;17.87;3.97;;;;;;;22.72;65.87;99490.20;1622624;87;21577;-59
2022/08/23 01:50:24;;;;;;;10.23;3.17;;;;;;;22.81;65.43;99485.81;1622708;87;21704;-59
2022/08/23 01:52:52;;;;;;;21.70;3.60;;;;;;;22.87;64.98;99485.72;1618245;87;21522;-59
2022/08/23 01:55:20;;;;;;;13.95;3.70;;;;;;;22.83;65.39;99481.62;1623749;87;21450;-59
2022/08/23 01:57:52;;;;;;;10.70;3.60;;;;;;;22.79;65.62;99481.57;1621478;87;21495;-59
2022/08/23 02:00:23;;;;;;;16.77;3.90;;;;;;;22.76;65.00;99488.08;1634252;86;21491;-59
2022/08/23 02:02:51;;;;;;;16.73;3.77;;;;;;;22.76;65.00;99488.08;1627948;85;21537;-59
2022/08/23 02:05:18;;;;;;;16.77;3.62;;;;;;;22.66;65.39;99480.09;1630508;87;21529;-59
2022/08/23 02:07:46;;;;;;;9.85;3.45;;;;;;;22.60;65.79;99486.52;1633245;86;21652;-59
2022/08/23 02:10:13;;;;;;;17.62;4.17;;;;;;;22.55;65.48;99489.65;1620448;87;23233;-59
2022/08/23 02:12:40;;;;;;;10.60;3.45;;;;;;;22.55;65.25;99486.97;1619772;87;28949;-59
2022/08/23 02:15:12;;;;;;;20.10;4.45;;;;;;;22.57;64.79;99484.16;1622613;87;21688;-59
2022/08/23 02:17:40;;;;;;;22.58;3.90;;;;;;;22.57;64.79;99484.16;1620780;87;21568;-59
2022/08/23 02:20:08;;;;;;;7.25;3.08;;;;;;;22.62;64.17;99491.23;1620444;87;21574;-59
2022/08/23 02:22:35;;;;;;;14.53;3.77;;;;;;;22.62;64.17;99491.23;1664133;84;21742;-60
2022/08/23 02:25:01;;;;;;;13.65;3.50;;;;;;;22.75;64.16;99485.04;1658075;85;21585;-59
2022/08/23 02:27:28;;;;;;;25.27;4.55;;;;;;;22.75;64.16;99485.04;1652866;85;21562;-59
2022/08/23 02:29:55;;;;;;;12.65;4.00;;;;;;;22.73;63.98;99493.25;1659515;85;21097;-59
2022/08/23 02:32:22;;;;;;;9.28;3.33;;;;;;;22.70;64.04;99494.04;1663418;85;21475;-59
2022/08/23 02:34:48;;;;;;;19.75;3.45;;;;;;;22.69;64.51;99491.83;1645061;85;21825;-59
2022/08/23 02:37:15;;;;;;;12.05;3.50;;;;;;;22.69;63.76;99493.67;1661662;84;21571;-59
2022/08/23 02:39:43;;;;;;;11.03;4.12;;;;;;;22.66;63.63;99493.48;1658768;85;25756;-59
2022/08/23 02:42:10;;;;;;;13.20;3.70;;;;;;;22.63;63.80;99495.61;1665682;85;21043;-59
2022/08/23 02:44:37;;;;;;;18.30;3.67;;;;;;;22.66;64.01;99498.84;1639369;85;21524;-60
2022/08/23 02:47:06;;;;;;;12.90;3.57;;;;;;;22.61;63.90;99505.63;1624327;86;22026;-59
2022/08/23 02:49:33;;;;;;;14.80;3.67;;;;;;;22.55;63.68;99509.74;1622046;87;21012;-59
2022/08/23 02:52:04;;;;;;;9.45;2.92;;;;;;;22.55;63.68;99509.74;1623290;86;21557;-60
2022/08/23 02:54:32;;;;;;;10.23;3.12;;;;;;;22.52;63.74;99513.53;1619528;87;21637;-59
2022/08/23 02:56:59;;;;;;;20.17;3.85;;;;;;;22.52;63.74;99513.53;1620193;86;21536;-59
2022/08/23 02:59:26;;;;;;;13.85;3.47;;;;;;;22.40;64.39;99512.54;1620732;87;21999;-59
2022/08/23 03:01:52;;;;;;;16.15;3.42;;;;;;;22.43;64.96;99518.92;1626478;87;21537;-59
2022/08/23 03:04:20;;;;;;;16.97;3.85;;;;;;;22.43;64.96;99518.92;1622744;86;21517;-59
2022/08/23 03:06:47;;;;;;;11.83;4.00;;;;;;;22.37;64.45;99514.99;1621295;87;21155;-59
2022/08/23 03:09:14;;;;;;;11.95;3.37;;;;;;;22.39;64.09;99516.19;1625176;87;21423;-58
2022/08/23 03:11:46;;;;;;;16.12;3.80;;;;;;;22.44;64.02;99527.33;1597627;87;21811;-59
2022/08/23 03:14:13;;;;;;;15.55;3.25;;;;;;;22.38;64.13;99527.41;1622916;87;21024;-58
2022/08/23 03:16:41;;;;;;;13.30;3.17;;;;;;;22.38;64.54;99530.56;1650520;85;21522;-59
2022/08/23 03:19:08;;;;;;;11.27;3.43;;;;;;;22.37;64.03;99525.70;1625308;87;21848;-59
2022/08/23 03:21:37;;;;;;;11.50;3.42;;;;;;;22.35;63.94;99527.69;1622850;87;21451;-60
2022/08/23 03:24:04;;;;;;;21.97;3.37;;;;;;;22.33;63.83;99531.84;1649113;85;22090;-59
2022/08/23 03:26:31;;;;;;;;;;;;;;;22.36;63.71;99529.39;1624367;86;21620;-59
2022/08/23 03:28:59;;;;;;;19.98;3.87;;;;;;;22.32;64.21;99536.87;1634198;86;20460;-59
2022/08/23 03:31:28;;;;;;;20.40;3.52;;;;;;;22.34;63.84;99525.52;1655230;85;21470;-59
2022/08/23 03:34:09;;;;;;;20.70;3.98;;;;;;;22.39;63.55;99526.41;1645991;85;21664;-58
2022/08/23 03:36:37;;;;;;;12.37;3.80;;;;;;;22.41;63.58;99532.96;1622325;87;21860;-59
2022/08/23 03:39:04;;;;;;;19.85;3.67;;;;;;;22.46;63.49;99537.40;1626452;86;21566;-59
2022/08/23 03:41:30;;;;;;;14.68;4.00;;;;;;;22.48;63.57;99537.59;1618310;87;21534;-59
2022/08/23 03:43:57;;;;;;;16.97;4.58;;;;;;;22.49;63.15;99537.09;1625529;86;21569;-59
2022/08/23 03:46:25;;;;;;;18.45;3.45;;;;;;;22.50;62.90;99540.97;1611960;87;21439;-59
2022/08/23 03:48:55;;;;;;;17.07;3.50;;;;;;;22.52;63.32;99548.36;1628238;87;21805;-59
2022/08/23 03:51:23;;;;;;;19.12;3.95;;;;;;;22.63;63.21;99551.37;1626817;86;21120;-59
2022/08/23 03:53:49;;;;;;;13.78;3.50;;;;;;;22.64;62.65;99549.06;1626138;87;21559;-59
2022/08/23 03:56:30;;;;;;;21.15;3.75;;;;;;;22.65;62.56;99557.43;1628587;87;21557;-59
2022/08/23 03:59:00;;;;;;;15.25;3.25;;;;;;;22.70;62.34;99561.03;1608259;87;21076;-59
2022/08/23 04:01:27;;;;;;;19.65;3.87;;;;;;;22.72;62.16;99565.24;1625922;87;22239;-59
2022/08/23 04:03:53;;;;;;;18.35;4.30;;;;;;;22.78;61.76;99571.02;1625330;87;21568;-59
2022/08/23 04:06:20;;;;;;;13.55;3.30;;;;;;;22.83;61.35;99566.91;1625854;86;21661;-59
2022/08/23 04:08:47;;;;;;;12.85;3.47;;;;;;;22.84;62.21;99565.91;1624716;86;21495;-59
2022/08/23 04:11:14;;;;;;;12.23;3.80;;;;;;;22.86;62.00;99571.96;1626079;86;21521;-59
2022/08/23 04:13:43;;;;;;;17.95;3.45;;;;;;;22.95;61.13;99571.59;1616608;86;21964;-60
2022/08/23 04:16:10;;;;;;;20.68;4.05;;;;;;;22.95;61.13;99571.59;1623285;86;21485;-59
2022/08/23 04:18:38;;;;;;;23.65;3.92;;;;;;;23.01;60.89;99576.86;1619970;86;21518;-60
2022/08/23 04:21:09;;;;;;;20.20;3.62;;;;;;;23.06;60.38;99579.98;1623731;86;21052;-60
2022/08/23 04:23:38;;;;;;;12.40;3.33;;;;;;;23.13;60.21;99576.56;1628468;87;21455;-60
2022/08/23 04:26:06;;;;;;;16.75;3.17;;;;;;;23.13;60.34;99579.72;1626655;87;21813;-59
2022/08/23 04:28:33;;;;;;;11.40;4.08;;;;;;;23.13;60.24;99573.87;1624804;86;21023;-59
2022/08/23 04:31:00;;;;;;;19.40;4.03;;;;;;;23.15;61.11;99573.73;1628008;86;21530;-60
2022/08/23 04:33:30;;;;;;;14.40;3.45;;;;;;;23.22;60.26;99572.13;1592969;87;21527;-59
2022/08/23 04:35:58;;;;;;;22.62;4.20;;;;;;;23.31;59.97;99575.25;1623980;87;21619;-61
2022/08/23 04:38:25;;;;;;;12.18;3.60;;;;;;;23.39;59.43;99571.83;1624693;86;21806;-60
2022/08/23 04:43:40;;;;;;;15.68;3.25;;;;;;;23.54;59.68;99576.19;1628721;86;21571;-59
2022/08/23 04:46:09;;;;;;;16.82;3.98;;;;;;;23.57;59.38;99575.89;1624554;87;21598;-59
2022/08/23 04:48:36;;;;;;;15.98;3.45;;;;;;;23.63;59.28;99576.63;1626534;86;21009;-59
2022/08/23 04:51:03;;;;;;;18.95;3.85;;;;;;;23.66;59.05;99583.55;1627479;86;21807;-60
2022/08/23 04:53:34;;;;;;;22.80;3.95;;;;;;;23.77;58.51;99586.48;1629058;85;21438;-59
2022/08/23 04:56:11;;;;;;;12.85;3.08;;;;;;;23.77;58.51;99586.48;1553752;90;21676;-59
2022/08/23 04:58:38;;;;;;;19.85;3.70;;;;;;;23.86;57.77;99585.11;1625353;87;21067;-60
2022/08/23 05:01:06;;;;;;;18.60;3.37;;;;;;;23.95;58.13;99594.09;1628040;86;21549;-62
2022/08/23 05:03:33;;;;;;;18.15;3.40;;;;;;;24.10;57.43;99593.90;1649025;86;22120;-59
2022/08/23 05:06:01;;;;;;;19.65;3.17;;;;;;;24.10;57.43;99593.90;1602429;88;21587;-58
2022/08/23 05:08:29;;;;;;;19.45;4.03;;;;;;;24.20;56.72;99593.81;1624916;87;21547;-59
2022/08/23 05:11:01;;;;;;;15.98;3.55;;;;;;;24.24;56.85;99590.32;1628133;86;21679;-58
2022/08/23 05:13:28;;;;;;;15.18;3.80;;;;;;;24.31;56.67;99592.73;1622717;87;21561;-59
2022/08/23 05:15:55;;;;;;;20.15;3.62;;;;;;;24.42;56.46;99595.69;1625956;86;22004;-59
2022/08/23 05:18:24;;;;;;;19.73;4.20;;;;;;;24.51;56.10;99600.13;1627197;86;21526;-59
2022/08/23 05:20:51;;;;;;;17.90;3.77;;;;;;;24.55;56.03;99593.47;1627296;87;21568;-59
2022/08/23 05:23:18;;;;;;;18.15;4.08;;;;;;;24.61;55.68;99598.71;1624375;87;21470;-59
2022/08/23 05:25:50;;;;;;;17.50;4.00;;;;;;;24.64;55.37;99592.52;1617869;86;21518;-58
2022/08/23 05:28:25;;;;;;;16.67;3.70;;;;;;;24.67;55.24;99600.77;1612867;86;21830;-59
2022/08/23 05:34:29;;;;;;;14.30;3.83;;;;;;;24.47;57.75;99603.63;1784438;78;23208;-58
2022/08/23 05:36:57;;;;;;;20.68;4.53;;;;;;;25.01;54.40;99603.48;1731677;80;21108;-59
2022/08/23 05:39:26;;;;;;;39.20;4.17;;;;;;;25.02;53.34;99601.15;1734930;80;21792;-59
2022/08/23 05:41:53;;;;;;;24.05;4.83;;;;;;;25.02;53.10;99607.04;1729603;80;21503;-59
2022/08/23 05:44:20;;;;;;;27.40;5.33;;;;;;;25.06;53.01;99605.71;1737846;81;21604;-59
2022/08/23 05:46:47;;;;;;;35.98;5.12;;;;;;;25.09;52.63;99605.41;1736265;80;21108;-59
2022/08/23 05:49:18;;;;;;;26.93;4.87;;;;;;;25.15;53.15;99607.44;1738137;80;21518;-58
2022/08/23 05:51:45;;;;;;;32.93;4.57;;;;;;;25.25;52.97;99610.88;1741446;80;21816;-59
2022/08/23 05:54:12;;;;;;;26.73;5.17;;;;;;;25.34;52.43;99610.42;1741715;80;21700;-61
2022/08/23 05:56:41;;;;;;;30.68;4.85;;;;;;;25.44;51.91;99618.36;1735774;80;21665;-61
2022/08/23 05:59:14;;;;;;;21.97;4.45;;;;;;;25.49;51.79;99619.23;1745625;80;21462;-62
2022/08/23 06:01:40;;;;;;;43.70;5.58;;;;;;;25.59;51.48;99625.31;1738482;81;21422;-62
2022/08/23 06:04:11;;;;;;;25.27;4.87;;;;;;;25.63;50.99;99615.38;1743552;80;21968;-63
2022/08/23 06:06:58;;;;;;;42.83;5.83;;;;;;;25.73;50.27;99619.79;1636763;85;21579;-62
2022/08/23 06:09:25;;;;;;;35.47;5.20;;;;;;;25.79;50.00;99630.77;1639912;85;21572;-62
2022/08/23 06:11:52;;;;;;;34.60;5.57;;;;;;;25.92;49.71;99637.06;1640324;85;21538;-61
2022/08/23 06:14:20;;;;;;;37.15;5.72;;;;;;;26.00;50.14;99640.27;1635355;85;21496;-61
2022/08/23 06:16:49;;;;;;;35.68;6.65;;;;;;;26.13;49.39;99637.94;1635839;85;21801;-61
2022/08/23 06:19:17;;;;;;;39.75;5.97;;;;;;;26.25;48.64;99637.61;1635891;85;21566;-61
2022/08/23 06:21:45;;;;;;;48.63;5.97;;;;;;;26.33;48.73;99647.03;1590099;86;21607;-61
2022/08/23 06:24:13;;;;;;;45.55;6.70;;;;;;;26.46;48.47;99651.93;1642728;85;21488;-59
2022/08/23 06:26:43;;;;;;;43.15;6.62;;;;;;;26.58;47.93;99647.39;1647922;85;21461;-60
2022/08/23 06:29:14;;;;;;;50.12;7.08;;;;;;;26.70;47.44;99644.38;1642135;84;22086;-59
2022/08/23 06:31:49;;;;;;;52.93;6.85;;;;;;;26.75;46.77;99657.69;1639463;86;21429;-59
2022/08/23 06:34:33;;;;;;;55.58;7.20;;;;;;;26.91;46.20;99652.77;1634254;85;21560;-60
2022/08/23 06:37:19;;;;;;;56.20;7.92;;;;;;;26.97;45.29;99660.69;1625096;84;21529;-60
2022/08/23 06:40:03;;;;;;;53.83;7.85;;;;;;;27.06;44.84;99660.17;1642234;85;21579;-60
2022/08/23 06:42:32;;;;;;;57.53;8.43;;;;;;;27.09;44.67;99663.88;1601636;87;21505;-61
2022/08/23 06:45:00;;;;;;;56.70;7.83;;;;;;;27.25;44.73;99665.69;1639890;85;21459;-60
2022/08/23 06:47:30;;;;;;;50.55;8.10;;;;;;;27.31;44.13;99666.37;1632734;85;21582;-60
2022/08/23 06:49:57;;;;;;;58.23;7.50;;;;;;;27.38;43.72;99664.66;1637294;87;21527;-60
2022/08/23 06:52:27;;;;;;;45.30;7.12;;;;;;;27.47;43.81;99665.48;1636060;85;21650;-60
2022/08/23 06:54:55;;;;;;;61.68;8.33;;;;;;;27.58;43.82;99666.45;1636627;85;22012;-61
2022/08/23 06:57:40;;;;;;;56.75;8.43;;;;;;;27.63;43.35;99668.09;1638058;85;21572;-62
2022/08/23 07:00:25;;;;;;;59.08;8.15;;;;;;;27.67;42.84;99670.80;1638547;85;21607;-60
2022/08/23 07:02:57;;;;;;;67.78;9.10;;;;;;;27.75;42.89;99675.33;1638520;85;21530;-59
2022/08/23 07:05:42;;;;;;;59.27;8.70;;;;;;;27.80;43.15;99679.67;1636790;86;21550;-59
2022/08/23 07:08:22;;;;;;;71.80;9.23;;;;;;;27.81;43.21;99681.88;1627127;87;21789;-60
2022/08/23 07:10:49;;;;;;;68.90;8.20;;;;;;;27.86;42.65;99684.88;1631117;85;21026;-60
2022/08/23 07:13:16;;;;;;;66.80;8.45;;;;;;;27.89;42.67;99684.05;1632623;85;21600;-60
2022/08/23 07:15:44;;;;;;;67.25;8.40;;;;;;;27.98;42.71;99684.02;1633814;85;21491;-60
2022/08/23 07:18:12;;;;;;;77.08;11.70;;;;;;;28.01;42.47;99693.10;1633930;87;21588;-60
2022/08/23 07:20:39;;;;;;;;;;;;;;;28.02;42.56;99694.80;1636179;85;21883;-62
2022/08/23 07:23:06;;;;;;;63.58;11.55;;;;;;;28.07;42.12;99698.66;1637336;85;20471;-61
2022/08/23 07:25:33;;;;;;;62.17;9.20;;;;;;;28.05;42.94;99692.59;1639063;85;20955;-60
2022/08/23 07:28:02;;;;;;;62.05;8.10;;;;;;;28.08;42.81;99698.97;1634127;85;21490;-59
2022/08/23 07:30:29;;;;;;;59.23;10.18;;;;;;;28.14;41.98;99694.71;1630050;85;21590;-60
2022/08/23 07:32:56;;;;;;;77.83;9.73;;;;;;;28.15;42.34;99699.11;1634960;85;21930;-59
2022/08/23 07:35:30;;;;;;;63.45;8.35;;;;;;;28.17;42.28;99693.53;1639260;85;21506;-59
2022/08/23 07:37:59;;;;;;;63.50;9.13;;;;;;;28.22;42.58;99693.33;1638768;84;21545;-59
2022/08/23 07:40:31;;;;;;;66.77;9.25;;;;;;;28.34;42.47;99693.23;1643683;85;21054;-59
2022/08/23 07:42:59;;;;;;;53.48;8.18;;;;;;;28.44;42.09;99688.93;1636329;85;21589;-60
2022/08/23 07:45:26;;;;;;;60.77;8.47;;;;;;;28.66;42.33;99688.63;1633116;85;21782;-60
2022/08/23 07:47:54;;;;;;;58.92;8.33;;;;;;;28.66;42.33;99688.63;1635892;85;21614;-60
2022/08/23 07:50:23;;;;;;;78.00;12.82;;;;;;;28.85;41.59;99692.69;1635494;85;21435;-60
2022/08/23 07:52:50;;;;;;;76.53;10.08;;;;;;;28.93;41.22;99690.41;1630749;84;21583;-60
2022/08/23 07:55:17;;;;;;;65.12;9.28;;;;;;;28.98;40.83;99694.77;1608245;87;21646;-61
2022/08/23 07:57:51;;;;;;;58.92;10.28;;;;;;;28.97;40.63;99697.66;1632020;85;21808;-61
2022/08/23 08:00:29;;;;;;;71.62;9.60;;;;;;;28.93;40.53;99692.63;1627386;85;21523;-60
2022/08/23 08:02:58;;;;;;;68.78;9.53;;;;;;;29.02;40.70;99693.38;1631585;86;21526;-60
2022/08/23 08:05:27;;;;;;;65.57;9.53;;;;;;;29.12;40.46;99699.38;1636609;84;21666;-60
2022/08/23 08:07:53;;;;;;;90.07;11.27;;;;;;;29.20;39.99;99697.66;1629300;86;21426;-57
2022/08/23 08:10:22;;;;;;;75.30;10.00;;;;;;;29.26;39.72;99696.90;1653723;84;22153;-60
2022/08/23 08:12:49;;;;;;;91.05;12.23;;;;;;;29.36;39.59;99694.74;1652711;85;21596;-60
2022/08/23 08:15:18;;;;;;;81.70;10.38;;;;;;;29.46;39.22;99694.45;1651367;86;21561;-60
2022/08/23 08:17:47;;;;;;;88.87;10.48;;;;;;;29.55;39.10;99700.11;1652890;85;21677;-60
2022/08/23 08:20:18;;;;;;;102.30;11.78;;;;;;;29.61;38.83;99694.45;1653033;84;21695;-61
2022/08/23 08:22:49;;;;;;;85.72;11.00;;;;;;;29.77;38.64;99698.36;1652157;84;21755;-58
2022/08/23 08:25:34;;;;;;;101.43;12.10;;;;;;;29.87;38.47;99698.05;1650713;84;21884;-60
2022/08/23 08:28:03;;;;;;;93.95;11.83;;;;;;;29.99;37.96;99694.33;1661470;84;21653;-59
2022/08/23 08:30:30;;;;;;;85.57;10.30;;;;;;;30.12;37.88;99698.57;1652583;84;21517;-60
2022/08/23 08:32:57;;;;;;;76.50;10.72;;;;;;;30.22;37.90;99700.97;1652619;86;21551;-59
2022/08/23 08:35:25;;;;;;;78.12;10.25;;;;;;;30.26;37.71;99696.31;1649888;84;22281;-59
2022/08/23 08:37:52;;;;;;;78.12;10.20;;;;;;;30.37;37.68;99707.20;1654067;84;21101;-59
2022/08/23 08:40:23;;;;;;;80.05;12.20;;;;;;;30.52;37.60;99699.53;1656651;83;21639;-59
2022/08/23 08:43:05;;;;;;;78.72;9.95;;;;;;;30.60;37.12;99704.81;1649597;84;21596;-59
2022/08/23 08:45:53;;;;;;;102.75;12.18;;;;;;;30.71;36.90;99705.65;1634432;84;21585;-60
2022/08/23 08:48:21;;;;;;;78.80;10.70;;;;;;;30.78;36.62;99709.27;1580385;86;21837;-59
2022/08/23 08:50:55;;;;;;;82.25;10.08;;;;;;;30.78;36.28;99715.19;1653383;84;21624;-59
2022/08/23 08:53:35;;;;;;;63.73;10.05;;;;;;;30.77;36.22;99708.09;1651344;84;21559;-60
2022/08/23 08:56:17;;;;;;;64.42;10.20;;;;;;;30.81;36.46;99709.38;1650252;86;21496;-60
2022/08/23 08:58:53;;;;;;;83.42;10.65;;;;;;;30.79;36.35;99715.00;1652536;84;21561;-59
2022/08/23 09:01:21;;;;;;;75.30;10.80;;;;;;;30.79;35.84;99719.06;1649005;84;21805;-60
2022/08/23 09:03:48;;;;;;;80.42;10.03;;;;;;;30.85;35.82;99718.31;1626612;86;21648;-60
2022/08/23 09:06:25;;;;;;;84.70;11.55;;;;;;;30.88;35.13;99721.14;1651108;84;21554;-59
2022/08/23 09:09:12;;;;;;;76.12;10.10;;;;;;;30.92;35.09;99729.23;1634505;85;21486;-59
2022/08/23 09:11:57;;;;;;;68.55;10.65;;;;;;;30.88;35.24;99726.56;1632910;85;21611;-59
2022/08/23 09:14:54;;;;;;;73.07;10.13;;;;;;;30.82;35.04;99732.78;1631187;85;21750;-59
2022/08/23 09:17:33;;;;;;;76.92;9.25;;;;;;;30.85;34.79;99730.52;1632192;85;21602;-59
2022/08/23 09:20:02;;;;;;;64.27;8.35;;;;;;;30.90;34.31;99728.59;1636825;85;21488;-59
2022/08/23 09:22:37;;;;;;;61.83;9.53;;;;;;;31.06;34.32;99735.60;1632217;85;21101;-60
2022/08/23 09:25:10;;;;;;;63.00;9.43;;;;;;;31.07;34.04;99729.15;1636287;85;21505;-60
2022/08/23 09:27:40;;;;;;;46.30;7.50;;;;;;;31.09;33.73;99731.15;1635398;85;21640;-59
2022/08/23 09:30:08;;;;;;;60.65;7.87;;;;;;;31.15;33.74;99728.16;1635517;85;21504;-60
2022/08/23 09:32:38;;;;;;;44.63;7.05;;;;;;;31.24;33.61;99715.59;1635039;85;22079;-60
2022/08/23 09:35:23;;;;;;;63.95;8.08;;;;;;;31.32;33.49;99725.45;1635761;85;21617;-59
2022/08/23 09:38:05;;;;;;;52.43;9.10;;;;;;;31.43;32.96;99728.14;1631744;85;21616;-60
2022/08/23 09:40:41;;;;;;;44.58;8.48;;;;;;;31.42;32.09;99725.13;1627884;86;22012;-58
2022/08/23 09:43:17;;;;;;;53.23;8.88;;;;;;;31.33;32.87;99728.50;1627864;85;21609;-61
2022/08/23 09:45:55;;;;;;;52.60;7.08;;;;;;;31.32;32.78;99726.81;1631877;85;21554;-65
2022/08/23 09:48:40;;;;;;;63.35;7.42;;;;;;;31.27;31.97;99718.44;1633938;84;21605;-60
2022/08/23 09:51:30;;;;;;;62.75;7.83;;;;;;;31.17;32.29;99722.84;1629506;85;21563;-60
2022/08/23 09:54:21;;;;;;;42.45;6.62;;;;;;;31.15;31.68;99722.73;1630389;87;21964;-60
2022/08/23 09:56:52;;;;;;;42.03;7.33;;;;;;;31.20;32.18;99714.84;1649389;85;21562;-60
2022/08/23 09:59:41;;;;;;;40.43;7.42;;;;;;;31.28;32.37;99719.27;1648287;84;21556;-59
2022/08/23 10:02:32;;;;;;;40.73;6.53;;;;;;;31.38;31.99;99719.74;1647652;84;21008;-60
2022/08/23 10:05:09;;;;;;;48.35;7.12;;;;;;;31.56;31.54;99717.91;1617875;85;21510;-59
2022/08/23 10:07:40;;;;;;;43.63;6.90;;;;;;;31.62;31.39;99711.13;1588664;89;21840;-60
2022/08/23 10:10:32;;;;;;;31.10;5.92;;;;;;;31.68;31.65;99714.09;1589261;88;21571;-60
2022/08/23 10:13:02;;;;;;;34.25;6.30;;;;;;;31.79;31.59;99721.14;1600612;86;21569;-59
2022/08/23 10:15:53;;;;;;;35.73;5.95;;;;;;;32.01;31.36;99716.97;1614159;87;21570;-58
2022/08/23 10:18:28;;;;;;;37.33;6.62;;;;;;;32.15;30.99;99719.23;1648719;84;21184;-60
2022/08/23 10:21:04;;;;;;;37.73;6.45;;;;;;;32.26;30.93;99712.36;1593325;85;21943;-57
2022/08/23 10:24:00;;;;;;;39.65;6.33;;;;;;;32.37;30.63;99720.75;1648057;86;21590;-59
2022/08/23 10:26:30;;;;;;;39.83;6.47;;;;;;;32.34;30.62;99724.40;1639095;84;20978;-58
2022/08/23 10:29:36;;;;;;;26.07;5.08;;;;;;;32.17;31.06;99724.80;1715109;81;21502;-59
2022/08/23 10:32:24;;;;;;;34.92;6.17;;;;;;;32.12;31.00;99724.56;1711159;81;21104;-58
2022/08/23 10:35:33;;;;;;;29.35;5.45;;;;;;;32.01;31.38;99719.16;1700980;81;22066;-58
2022/08/23 10:38:36;;;;;;;29.05;5.75;;;;;;;31.97;30.91;99723.33;1705195;82;21553;-59
2022/08/23 10:41:30;;;;;;;32.95;4.80;;;;;;;31.88;30.71;99727.27;1704937;81;21654;-58
2022/08/23 10:44:20;;;;;;;30.77;4.40;;;;;;;31.80;31.23;99727.44;1709348;81;21526;-59
2022/08/23 10:47:06;;;;;;;36.85;5.90;;;;;;;31.80;31.12;99729.63;1704365;82;21416;-58
2022/08/23 10:49:35;;;;;;;28.42;5.60;;;;;;;31.72;30.98;99739.83;1674985;83;21727;-58
2022/08/23 10:52:03;;;;;;;29.92;4.85;;;;;;;31.64;31.11;99727.24;1705615;82;21044;-61
2022/08/23 10:54:45;;;;;;;29.57;4.85;;;;;;;31.62;30.93;99741.55;1707151;82;21622;-60
2022/08/23 10:57:07;;;;;;;28.92;5.42;;;;;;;31.59;30.83;99739.23;1706663;81;21534;-60
2022/08/23 10:59:34;;;;;;;27.30;4.50;;;;;;;31.54;31.13;99736.29;1712483;81;27168;-61
2022/08/23 11:02:08;;;;;;;19.00;4.50;;;;;;;31.53;31.29;99740.03;1699405;82;21756;-61
2022/08/23 11:04:44;;;;;;;24.50;4.45;;;;;;;31.52;30.92;99735.66;1701936;81;21078;-61
2022/08/23 11:07:27;;;;;;;21.52;4.67;;;;;;;31.50;31.26;99730.42;1698221;82;21475;-60
2022/08/23 11:10:19;;;;;;;18.67;3.90;;;;;;;31.51;31.51;99738.04;1674698;82;21552;-59
2022/08/23 11:12:57;;;;;;;16.35;3.30;;;;;;;31.40;31.08;99733.47;1632777;84;21537;-61
2022/08/23 11:15:45;;;;;;;16.87;4.22;;;;;;;31.39;30.59;99726.87;1657375;84;21785;-61
2022/08/23 11:18:40;;;;;;;14.05;3.85;;;;;;;31.38;30.54;99724.68;1699900;81;21421;-59
2022/08/23 11:21:32;;;;;;;15.15;3.62;;;;;;;31.38;31.34;99726.04;1704187;81;21551;-58
2022/08/23 11:24:05;;;;;;;14.47;3.20;;;;;;;31.34;30.67;99730.69;1669004;83;21567;-58
2022/08/23 11:26:45;;;;;;;13.70;3.60;;;;;;;31.22;30.59;99730.41;1703443;81;21656;-59
2022/08/23 11:29:25;;;;;;;12.03;3.25;;;;;;;31.17;30.45;99728.27;1708828;82;21780;-60
2022/08/23 11:32:02;;;;;;;12.80;3.80;;;;;;;31.12;30.47;99729.91;1703612;82;21507;-60
2022/08/23 11:34:34;;;;;;;14.83;2.95;;;;;;;31.10;29.79;99725.19;1675762;83;21418;-59
2022/08/23 11:37:23;;;;;;;15.40;2.83;;;;;;;31.05;29.23;99722.55;1668847;84;21668;-60
2022/08/23 11:40:02;;;;;;;18.12;4.15;;;;;;;31.07;29.13;99720.17;1676537;84;21462;-60
2022/08/23 11:42:42;;;;;;;18.65;3.80;;;;;;;31.19;29.14;99713.14;1705755;82;21745;-59
2022/08/23 11:45:25;;;;;;;11.57;2.77;;;;;;;31.34;28.20;99713.87;1705369;82;21538;-59
2022/08/23 11:48:15;;;;;;;24.95;3.15;;;;;;;31.56;27.37;99702.97;1706097;82;21605;-59
2022/08/23 11:51:05;;;;;;;9.50;2.85;;;;;;;31.87;26.76;99704.34;1711671;82;21442;-62
2022/08/23 11:53:50;;;;;;;24.10;2.92;;;;;;;32.24;25.84;99709.01;1705470;82;21062;-59
2022/08/23 11:56:44;;;;;;;19.73;3.27;;;;;;;32.51;24.99;99696.28;1700772;81;21811;-61
2022/08/23 11:59:42;;;;;;;16.07;3.33;;;;;;;32.75;24.40;99692.98;1712838;81;21641;-59
2022/08/23 12:02:39;;;;;;;13.08;2.75;;;;;;;32.98;23.93;99699.88;1694469;82;21528;-59
2022/08/23 12:05:20;;;;;;;11.38;2.72;;;;;;;33.13;23.51;99691.52;1706799;81;21532;-59